createdAt,value
2023-05-15T00:00:14.665Z,71.38
2023-05-15T00:02:41.315Z,71.20
2023-05-15T00:05:08.668Z,71.41
2023-05-15T00:07:36.000Z,71.59
2023-05-15T00:10:02.806Z,71.78
2023-05-15T00:12:29.601Z,72.12
2023-05-15T00:14:56.169Z,71.80
2023-05-15T00:17:22.786Z,71.64
2023-05-15T00:19:49.311Z,72.23
2023-05-15T00:22:15.840Z,72.39
2023-05-15T00:24:42.332Z,72.86
2023-05-15T00:27:08.775Z,72.72
2023-05-15T00:29:35.371Z,72.96
2023-05-15T00:32:01.816Z,73.48
2023-05-15T00:34:28.318Z,73.45
2023-05-15T00:36:54.763Z,73.92
2023-05-15T00:39:21.336Z,73.83
2023-05-15T00:41:48.584Z,74.67
2023-05-15T00:44:17.674Z,74.56
2023-05-15T00:46:46.081Z,74.91
2023-05-15T00:49:14.314Z,75.25
2023-05-15T00:51:42.344Z,74.97
2023-05-15T00:54:10.515Z,75.21
2023-05-15T00:56:37.748Z,75.49
2023-05-15T00:59:05.069Z,75.80
2023-05-15T01:01:34.853Z,76.07
2023-05-15T01:04:02.542Z,76.84
2023-05-15T01:06:30.535Z,76.45
2023-05-15T01:08:59.690Z,77.29
2023-05-15T01:11:35.902Z,77.20
2023-05-15T01:14:07.560Z,78.47
2023-05-15T01:16:35.105Z,78.43
2023-05-15T01:19:03.032Z,78.63
2023-05-15T01:21:36.282Z,79.84
2023-05-15T01:24:28.820Z,79.55
2023-05-15T01:27:26.229Z,80.19
2023-05-15T01:30:28.651Z,80.62
2023-05-15T01:33:35.681Z,81.13
2023-05-15T01:36:16.564Z,80.74
2023-05-15T01:38:59.160Z,81.49
2023-05-15T01:41:35.291Z,81.74
2023-05-15T01:44:14.858Z,80.95
2023-05-15T01:46:50.218Z,80.79
2023-05-15T01:49:20.178Z,81.32
2023-05-15T01:51:51.059Z,81.53
2023-05-15T01:54:19.083Z,82.05
2023-05-15T01:56:46.272Z,81.94
2023-05-15T01:59:13.736Z,81.39
2023-05-15T02:01:41.855Z,82.84
2023-05-15T02:04:09.913Z,82.59
2023-05-15T02:06:37.553Z,83.02
2023-05-15T02:09:04.663Z,82.24
2023-05-15T02:11:31.184Z,83.02
2023-05-15T02:13:59.161Z,83.38
2023-05-15T02:16:25.850Z,83.35
2023-05-15T02:18:52.813Z,83.08
2023-05-15T02:21:19.504Z,83.48
2023-05-15T02:23:46.490Z,84.14
2023-05-15T02:26:25.904Z,84.19
2023-05-15T02:29:13.631Z,83.42
2023-05-15T02:32:14.687Z,83.87
2023-05-15T02:35:13.460Z,83.94
2023-05-15T02:37:43.194Z,83.52
2023-05-15T02:40:12.585Z,84.44
2023-05-15T02:42:40.514Z,84.67
2023-05-15T02:45:08.601Z,84.75
2023-05-15T02:47:37.211Z,84.38
2023-05-15T02:50:07.119Z,84.67
2023-05-15T02:52:35.703Z,84.23
2023-05-15T02:55:02.252Z,83.97
2023-05-15T02:57:28.725Z,84.11
2023-05-15T02:59:57.074Z,84.21
2023-05-15T03:02:23.647Z,84.30
2023-05-15T03:04:50.070Z,84.29
2023-05-15T03:07:16.570Z,84.97
2023-05-15T03:09:43.207Z,84.64
2023-05-15T03:12:10.076Z,84.84
2023-05-15T03:14:36.721Z,84.61
2023-05-15T03:17:03.413Z,84.95
2023-05-15T03:19:29.974Z,84.90
2023-05-15T03:21:56.485Z,84.30
2023-05-15T03:24:23.002Z,84.42
2023-05-15T03:26:49.529Z,84.36
2023-05-15T03:29:18.976Z,84.35
2023-05-15T03:31:45.573Z,84.47
2023-05-15T03:34:12.084Z,84.19
2023-05-15T03:36:38.583Z,84.26
2023-05-15T03:39:05.130Z,84.48
2023-05-15T03:41:31.574Z,84.36
2023-05-15T03:43:58.073Z,84.02
2023-05-15T03:46:24.634Z,84.14
2023-05-15T03:48:51.169Z,84.06
2023-05-15T03:51:17.734Z,83.98
2023-05-15T03:53:44.161Z,83.82
2023-05-15T03:56:10.781Z,83.83
2023-05-15T03:58:37.261Z,83.58
2023-05-15T04:01:03.786Z,83.18
2023-05-15T04:03:30.383Z,83.38
2023-05-15T04:05:56.935Z,83.37
2023-05-15T04:08:23.491Z,83.20
2023-05-15T04:10:50.071Z,83.14
2023-05-15T04:13:16.489Z,83.00
2023-05-15T04:15:43.191Z,82.94
2023-05-15T04:18:09.712Z,82.88
2023-05-15T04:20:36.242Z,82.92
2023-05-15T04:23:04.263Z,82.96
2023-05-15T04:25:31.040Z,82.79
2023-05-15T04:27:57.549Z,82.60
2023-05-15T04:30:24.059Z,82.59
2023-05-15T04:32:51.983Z,82.24
2023-05-15T04:35:19.230Z,82.09
2023-05-15T04:37:45.991Z,82.10
2023-05-15T04:40:15.013Z,82.06
2023-05-15T04:42:41.768Z,82.11
2023-05-15T04:45:09.386Z,81.87
2023-05-15T04:47:36.261Z,81.98
2023-05-15T04:50:03.115Z,82.15
2023-05-15T04:52:29.710Z,81.62
2023-05-15T04:54:56.321Z,81.57
2023-05-15T04:57:23.195Z,81.81
2023-05-15T04:59:49.898Z,81.48
2023-05-15T05:02:16.486Z,81.51
2023-05-15T05:04:43.351Z,80.80
2023-05-15T05:07:09.868Z,80.71
2023-05-15T05:09:36.292Z,80.35
2023-05-15T05:12:02.988Z,80.57
2023-05-15T05:14:29.598Z,80.41
2023-05-15T05:16:56.020Z,79.89
2023-05-15T05:19:22.628Z,79.85
2023-05-15T05:21:49.236Z,79.78
2023-05-15T05:24:15.948Z,79.41
2023-05-15T05:26:45.404Z,78.94
2023-05-15T05:29:12.117Z,79.07
2023-05-15T05:31:38.688Z,78.61
2023-05-15T05:34:05.234Z,78.54
2023-05-15T05:36:31.737Z,78.28
2023-05-15T05:38:58.305Z,78.63
2023-05-15T05:41:24.786Z,78.63
2023-05-15T05:43:51.339Z,77.96
2023-05-15T05:46:17.904Z,77.73
2023-05-15T05:48:44.460Z,77.63
2023-05-15T05:51:10.882Z,77.95
2023-05-15T05:53:38.934Z,77.88
2023-05-15T05:56:06.459Z,77.58
2023-05-15T05:58:33.036Z,77.65
2023-05-15T06:01:00.854Z,77.74
2023-05-15T06:03:27.834Z,77.68
2023-05-15T06:05:54.590Z,77.96
2023-05-15T06:08:21.149Z,78.21
2023-05-15T06:10:47.723Z,78.32
2023-05-15T06:13:15.293Z,78.31
2023-05-15T06:15:42.197Z,78.43
2023-05-15T06:18:08.827Z,78.34
2023-05-15T06:20:35.503Z,77.67
2023-05-15T06:23:02.132Z,77.14
2023-05-15T06:25:28.751Z,76.27
2023-05-15T06:27:57.001Z,76.99
2023-05-15T06:30:23.641Z,76.58
2023-05-15T06:32:50.354Z,76.32
2023-05-15T06:35:16.854Z,76.29
2023-05-15T06:37:43.386Z,76.31
2023-05-15T06:40:10.027Z,75.98
2023-05-15T06:42:36.552Z,75.82
2023-05-15T06:45:03.138Z,76.37
2023-05-15T06:47:29.837Z,75.87
2023-05-15T06:49:56.470Z,75.97
2023-05-15T06:52:22.962Z,76.07
2023-05-15T06:54:49.579Z,74.91
2023-05-15T06:57:16.022Z,75.76
2023-05-15T06:59:42.531Z,75.26
2023-05-15T07:02:09.284Z,75.08
2023-05-15T07:04:35.979Z,75.21
2023-05-15T07:07:02.541Z,75.13
2023-05-15T07:09:29.007Z,74.37
2023-05-15T07:11:55.607Z,74.95
2023-05-15T07:14:22.047Z,74.83
2023-05-15T07:16:48.816Z,73.92
2023-05-15T07:19:19.034Z,74.29
2023-05-15T07:21:45.692Z,74.16
2023-05-15T07:24:12.183Z,73.84
2023-05-15T07:26:43.888Z,73.80
2023-05-15T07:29:17.075Z,73.92
2023-05-15T07:31:44.899Z,73.32
2023-05-15T07:34:11.929Z,73.47
2023-05-15T07:36:38.459Z,73.72
2023-05-15T07:39:04.893Z,73.06
2023-05-15T07:41:33.494Z,73.30
2023-05-15T07:44:00.045Z,73.39
2023-05-15T07:46:27.111Z,72.41
2023-05-15T07:48:54.012Z,72.52
2023-05-15T07:51:20.573Z,72.59
2023-05-15T07:53:47.227Z,72.07
2023-05-15T07:56:13.739Z,72.13
2023-05-15T07:58:40.431Z,72.14
2023-05-15T08:01:07.648Z,72.48
2023-05-15T08:03:34.278Z,72.78
2023-05-15T08:06:00.986Z,72.37
2023-05-15T08:08:27.490Z,72.42
2023-05-15T08:10:54.089Z,72.04
2023-05-15T08:13:20.589Z,72.48
2023-05-15T08:15:47.135Z,72.90
2023-05-15T08:18:13.617Z,72.67
2023-05-15T08:20:40.129Z,72.73
2023-05-15T08:23:07.698Z,72.19
2023-05-15T08:25:34.256Z,72.16
2023-05-15T08:28:01.485Z,72.34
2023-05-15T08:30:28.017Z,71.38
2023-05-15T08:32:54.622Z,71.00
2023-05-15T08:35:21.333Z,70.20
2023-05-15T08:37:47.911Z,69.98
2023-05-15T08:40:14.903Z,68.79
2023-05-15T08:42:45.874Z,68.89
2023-05-15T08:45:16.281Z,68.13
2023-05-15T08:47:43.649Z,67.93
2023-05-15T08:50:15.210Z,67.93
2023-05-15T08:52:44.052Z,68.18
2023-05-15T08:55:11.230Z,68.06
2023-05-15T08:57:38.672Z,67.02
2023-05-15T09:00:09.263Z,66.59
2023-05-15T09:02:37.615Z,66.93
2023-05-15T09:05:06.304Z,65.71
2023-05-15T09:07:34.046Z,66.30
2023-05-15T09:10:03.411Z,63.63
2023-05-15T09:12:34.658Z,64.69
2023-05-15T09:15:17.828Z,63.83
2023-05-15T09:17:46.075Z,61.82
2023-05-15T09:20:33.703Z,64.17
2023-05-15T09:23:02.413Z,64.10
2023-05-15T09:25:42.750Z,62.55
2023-05-15T09:28:24.295Z,61.88
2023-05-15T09:30:57.394Z,59.74
2023-05-15T09:33:30.963Z,61.14
2023-05-15T09:35:57.637Z,60.43
2023-05-15T09:38:24.346Z,60.15
2023-05-15T09:40:50.950Z,59.66
2023-05-15T09:43:17.523Z,58.13
2023-05-15T09:48:14.975Z,55.66
2023-05-15T09:50:42.019Z,53.89
2023-05-15T09:53:12.086Z,55.73
2023-05-15T09:55:38.748Z,55.78
2023-05-15T09:58:16.282Z,55.38
2023-05-15T10:00:48.143Z,54.97
2023-05-15T10:03:15.859Z,54.48
2023-05-15T10:05:44.070Z,53.92
2023-05-15T10:08:11.489Z,53.82
2023-05-15T10:10:38.213Z,53.16
2023-05-15T10:13:07.120Z,53.19
2023-05-15T10:15:34.336Z,52.80
2023-05-15T10:18:04.315Z,53.25
2023-05-15T10:20:32.162Z,52.44
2023-05-15T10:23:00.690Z,53.37
2023-05-15T10:25:32.033Z,51.99
2023-05-15T10:27:58.750Z,52.68
2023-05-15T10:30:26.634Z,49.94
2023-05-15T10:32:53.904Z,51.07
2023-05-15T10:35:21.534Z,50.48
2023-05-15T10:37:49.117Z,50.30
2023-05-15T10:40:17.675Z,48.01
2023-05-15T10:42:46.239Z,49.47
2023-05-15T10:45:13.327Z,48.69
2023-05-15T10:47:42.393Z,47.47
2023-05-15T10:50:10.179Z,47.84
2023-05-15T10:52:37.254Z,47.69
2023-05-15T10:55:07.281Z,46.78
2023-05-15T10:57:34.062Z,47.30
2023-05-15T11:00:02.192Z,47.75
2023-05-15T11:02:30.689Z,48.70
2023-05-15T11:05:01.678Z,47.01
2023-05-15T11:07:28.552Z,47.52
2023-05-15T11:09:56.189Z,47.17
2023-05-15T11:12:23.374Z,46.88
2023-05-15T11:14:55.875Z,46.22
2023-05-15T11:17:24.231Z,46.08
2023-05-15T11:19:50.979Z,45.62
2023-05-15T11:22:20.026Z,44.96
2023-05-15T11:24:55.917Z,44.63
2023-05-15T11:27:26.325Z,45.18
2023-05-15T11:30:15.892Z,42.47
2023-05-15T11:32:44.498Z,44.41
2023-05-15T11:35:13.165Z,43.53
2023-05-15T11:37:45.778Z,41.66
2023-05-15T11:40:24.784Z,43.29
2023-05-15T11:43:08.915Z,42.41
2023-05-15T11:45:37.925Z,42.78
2023-05-15T11:48:07.538Z,40.58
2023-05-15T11:50:42.155Z,42.44
2023-05-15T11:53:10.228Z,41.07
2023-05-15T11:55:42.072Z,41.53
2023-05-15T11:58:14.094Z,39.57
2023-05-15T12:00:41.977Z,41.04
2023-05-15T12:03:19.361Z,41.30
2023-05-15T12:05:57.482Z,39.15
2023-05-15T12:08:27.168Z,38.27
2023-05-15T12:10:53.712Z,38.52
2023-05-15T12:13:20.244Z,39.29
2023-05-15T12:15:47.311Z,39.74
2023-05-15T12:18:14.121Z,39.85
2023-05-15T12:20:46.515Z,39.60
2023-05-15T12:23:17.331Z,39.60
2023-05-15T12:25:46.163Z,40.03
2023-05-15T12:28:13.008Z,38.79
2023-05-15T12:30:40.073Z,38.74
2023-05-15T12:33:07.827Z,37.52
2023-05-15T12:35:36.662Z,35.73
2023-05-15T12:38:05.158Z,34.67
2023-05-15T12:40:36.102Z,37.13
2023-05-15T12:43:07.771Z,37.35
2023-05-15T12:45:36.424Z,37.98
2023-05-15T12:48:06.647Z,37.36
2023-05-15T12:50:34.911Z,38.34
2023-05-15T12:53:05.369Z,36.82
2023-05-15T12:55:36.551Z,37.88
2023-05-15T12:58:08.039Z,37.61
2023-05-15T13:00:36.342Z,37.18
2023-05-15T13:03:05.012Z,37.99
2023-05-15T13:05:32.968Z,36.74
2023-05-15T13:08:00.577Z,36.12
2023-05-15T13:10:27.436Z,38.66
2023-05-15T13:12:56.093Z,37.48
2023-05-15T13:15:25.590Z,37.15
2023-05-15T13:17:56.483Z,37.19
2023-05-15T13:20:24.270Z,36.30
2023-05-15T13:22:51.482Z,36.64
2023-05-15T13:25:20.560Z,35.07
2023-05-15T13:27:50.797Z,36.95
2023-05-15T13:30:18.340Z,37.39
2023-05-15T13:32:45.264Z,37.42
2023-05-15T13:35:11.994Z,37.31
2023-05-15T13:37:38.673Z,35.27
2023-05-15T13:40:09.979Z,35.62
2023-05-15T13:42:37.774Z,35.20
2023-05-15T13:45:12.201Z,35.68
2023-05-15T13:47:42.170Z,34.20
2023-05-15T13:50:17.880Z,36.35
2023-05-15T13:52:46.327Z,36.21
2023-05-15T13:55:12.986Z,35.56
2023-05-15T13:57:41.537Z,34.82
2023-05-15T14:00:13.492Z,34.85
2023-05-15T14:02:41.829Z,34.90
2023-05-15T14:05:13.690Z,35.23
2023-05-15T14:07:41.323Z,36.29
2023-05-15T14:10:08.850Z,38.09
2023-05-15T14:12:36.980Z,35.98
2023-05-15T14:15:03.793Z,34.58
2023-05-15T14:17:30.443Z,36.46
2023-05-15T14:19:56.994Z,36.85
2023-05-15T14:22:26.615Z,36.93
2023-05-15T14:24:53.465Z,36.92
2023-05-15T14:27:21.231Z,38.09
2023-05-15T14:29:49.500Z,34.63
2023-05-15T14:32:17.117Z,34.45
2023-05-15T14:34:44.767Z,35.60
2023-05-15T14:37:11.521Z,36.81
2023-05-15T14:39:38.082Z,37.52
2023-05-15T14:42:05.055Z,36.09
2023-05-15T14:44:31.826Z,37.70
2023-05-15T14:47:08.469Z,37.50
2023-05-15T14:49:36.943Z,38.46
2023-05-15T14:52:04.404Z,39.53
2023-05-15T14:54:30.926Z,40.29
2023-05-15T14:56:57.929Z,41.50
2023-05-15T14:59:25.484Z,42.59
2023-05-15T15:01:52.109Z,43.77
2023-05-15T15:04:18.760Z,43.52
2023-05-15T15:06:47.448Z,44.67
2023-05-15T15:09:14.064Z,43.27
2023-05-15T15:11:40.582Z,43.32
2023-05-15T15:14:07.285Z,42.76
2023-05-15T15:16:33.974Z,44.46
2023-05-15T15:19:00.675Z,43.95
2023-05-15T15:21:27.354Z,42.95
2023-05-15T15:23:55.220Z,44.20
2023-05-15T15:26:21.891Z,44.77
2023-05-15T15:28:48.573Z,44.16
2023-05-15T15:31:15.803Z,44.31
2023-05-15T15:33:42.573Z,43.61
2023-05-15T15:36:09.096Z,44.56
2023-05-15T15:38:36.075Z,42.24
2023-05-15T15:41:06.748Z,43.93
2023-05-15T15:43:33.382Z,44.11
2023-05-15T15:45:59.923Z,44.88
2023-05-15T15:48:26.465Z,46.39
2023-05-15T15:50:53.414Z,46.65
2023-05-15T15:53:19.928Z,47.58
2023-05-15T15:55:47.360Z,47.00
2023-05-15T15:58:14.725Z,47.53
2023-05-15T16:00:43.870Z,48.27
2023-05-15T16:03:11.008Z,48.41
2023-05-15T16:05:37.590Z,48.47
2023-05-15T16:08:04.208Z,48.70
2023-05-15T16:10:31.011Z,48.78
2023-05-15T16:12:57.723Z,48.72
2023-05-15T16:15:24.386Z,47.80
2023-05-15T16:17:54.949Z,48.85
2023-05-15T16:20:22.097Z,49.13
2023-05-15T16:22:48.770Z,48.84
2023-05-15T16:25:15.327Z,48.86
2023-05-15T16:27:41.874Z,47.83
2023-05-15T16:30:09.508Z,49.05
2023-05-15T16:32:37.478Z,50.55
2023-05-15T16:35:04.376Z,50.37
2023-05-15T16:37:30.927Z,50.72
2023-05-15T16:39:57.502Z,51.52
2023-05-15T16:42:24.049Z,51.80
2023-05-15T16:44:50.597Z,51.80
2023-05-15T16:47:23.037Z,51.35
2023-05-15T16:49:52.569Z,51.40
2023-05-15T16:52:19.077Z,51.13
2023-05-15T16:54:45.707Z,52.48
2023-05-15T16:57:13.421Z,52.58
2023-05-15T16:59:39.964Z,54.05
2023-05-15T17:02:06.889Z,54.75
2023-05-15T17:04:35.244Z,54.36
2023-05-15T17:07:01.945Z,55.17
2023-05-15T17:09:28.775Z,54.94
2023-05-15T17:11:55.646Z,54.52
2023-05-15T17:14:22.751Z,55.16
2023-05-15T17:16:49.291Z,55.47
2023-05-15T17:19:16.072Z,56.35
2023-05-15T17:21:42.842Z,56.82
2023-05-15T17:24:09.375Z,56.98
2023-05-15T17:26:35.890Z,57.83
2023-05-15T17:29:02.484Z,58.65
2023-05-15T17:31:29.760Z,58.83
2023-05-15T17:33:56.553Z,58.92
2023-05-15T17:36:23.107Z,59.33
2023-05-15T17:38:49.614Z,59.62
2023-05-15T17:41:16.146Z,59.97
2023-05-15T17:43:42.698Z,60.49
2023-05-15T17:46:09.270Z,60.43
2023-05-15T17:48:36.134Z,60.17
2023-05-15T17:51:02.652Z,60.38
2023-05-15T17:53:29.225Z,60.35
2023-05-15T17:55:57.535Z,60.77
2023-05-15T17:58:41.529Z,60.81
2023-05-15T18:01:12.199Z,61.12
2023-05-15T18:03:42.747Z,61.43
2023-05-15T18:06:14.871Z,61.70
2023-05-15T18:08:42.819Z,62.50
2023-05-15T18:13:53.174Z,63.59
2023-05-15T18:16:20.029Z,63.72
2023-05-15T18:18:52.359Z,64.42
2023-05-15T18:21:19.147Z,64.80
2023-05-15T18:23:46.959Z,65.44
2023-05-15T18:26:22.614Z,65.46
2023-05-15T18:28:52.637Z,66.16
2023-05-15T18:31:21.482Z,66.15
2023-05-15T18:33:50.318Z,66.70
2023-05-15T18:36:17.194Z,66.95
2023-05-15T18:38:46.330Z,67.50
2023-05-15T18:41:13.006Z,68.14
2023-05-15T18:43:39.818Z,68.43
2023-05-15T18:46:07.926Z,68.50
2023-05-15T18:48:40.519Z,69.08
2023-05-15T18:51:14.653Z,69.73
2023-05-15T18:53:59.962Z,69.99
2023-05-15T18:56:31.778Z,70.52
2023-05-15T18:58:58.792Z,70.46
2023-05-15T19:01:25.609Z,71.14
2023-05-15T19:03:52.462Z,71.74
2023-05-15T19:06:28.239Z,71.68
2023-05-15T19:08:55.312Z,72.52
2023-05-15T19:11:22.330Z,72.73
2023-05-15T19:13:49.110Z,72.49
2023-05-15T19:16:15.811Z,73.24
2023-05-15T19:18:42.883Z,73.25
2023-05-15T19:21:09.502Z,73.48
2023-05-15T19:23:36.273Z,73.44
2023-05-15T19:26:10.072Z,73.95
2023-05-15T19:28:36.751Z,73.80
2023-05-15T19:31:04.548Z,73.55
2023-05-15T19:33:34.655Z,73.55
2023-05-15T19:36:17.504Z,73.68
2023-05-15T19:38:45.294Z,74.00
2023-05-15T19:41:13.896Z,73.10
2023-05-15T19:43:42.813Z,73.27
2023-05-15T19:46:10.684Z,73.15
2023-05-15T19:48:40.689Z,72.88
2023-05-15T19:51:12.388Z,72.88
2023-05-15T19:53:56.918Z,72.68
2023-05-15T19:56:26.648Z,72.38
2023-05-15T19:58:54.988Z,72.41
2023-05-15T20:01:21.633Z,72.22
2023-05-15T20:03:48.369Z,72.20
2023-05-15T20:06:15.889Z,72.11
2023-05-15T20:08:52.869Z,72.33
2023-05-15T20:11:19.501Z,72.58
2023-05-15T20:13:46.122Z,72.44
2023-05-15T20:16:16.751Z,72.59
2023-05-15T20:18:47.671Z,72.38
2023-05-15T20:21:15.490Z,72.19
2023-05-15T20:23:42.119Z,72.57
2023-05-15T20:26:08.687Z,72.59
2023-05-15T20:28:35.215Z,72.37
2023-05-15T20:31:02.059Z,72.04
2023-05-15T20:33:28.912Z,71.69
2023-05-15T20:35:55.549Z,70.92
2023-05-15T20:38:24.364Z,70.57
2023-05-15T20:40:51.334Z,70.10
2023-05-15T20:43:17.945Z,69.49
2023-05-15T20:45:44.646Z,67.94
2023-05-15T20:48:15.866Z,68.03
2023-05-15T20:50:42.502Z,68.10
2023-05-15T20:53:13.219Z,67.92
2023-05-15T20:55:39.922Z,67.91
2023-05-15T20:58:06.557Z,68.36
2023-05-15T21:00:33.485Z,68.68
2023-05-15T21:03:00.277Z,68.13
2023-05-15T21:05:26.912Z,68.62
2023-05-15T21:07:53.456Z,69.05
2023-05-15T21:10:20.451Z,68.76
2023-05-15T21:12:47.008Z,68.71
2023-05-15T21:15:13.543Z,68.79
2023-05-15T21:17:40.558Z,68.22
2023-05-15T21:20:08.099Z,68.32
2023-05-15T21:22:34.826Z,68.17
2023-05-15T21:25:01.511Z,69.15
2023-05-15T21:27:28.092Z,69.40
2023-05-15T21:29:54.769Z,68.67
2023-05-15T21:32:23.434Z,68.52
2023-05-15T21:34:50.157Z,69.00
2023-05-15T21:37:16.808Z,68.73
2023-05-15T21:39:43.547Z,68.74
2023-05-15T21:42:10.295Z,68.39
2023-05-15T21:44:37.036Z,68.72
2023-05-15T21:47:03.899Z,68.63
2023-05-15T21:49:34.194Z,68.45
2023-05-15T21:52:00.728Z,68.69
2023-05-15T21:54:27.170Z,68.18
2023-05-15T21:56:53.802Z,68.24
2023-05-15T21:59:20.511Z,67.66
2023-05-15T22:01:47.165Z,68.12
2023-05-15T22:04:14.007Z,67.92
2023-05-15T22:06:41.396Z,67.96
2023-05-15T22:09:08.069Z,68.09
2023-05-15T22:11:34.819Z,68.18
2023-05-15T22:14:01.560Z,68.25
2023-05-15T22:16:28.259Z,68.27
2023-05-15T22:18:55.297Z,68.60
2023-05-15T22:21:21.938Z,69.00
2023-05-15T22:23:48.677Z,69.01
2023-05-15T22:26:15.440Z,69.79
2023-05-15T22:28:42.292Z,69.63
2023-05-15T22:31:08.961Z,69.48
2023-05-15T22:33:35.736Z,70.36
2023-05-15T22:36:02.676Z,70.76
2023-05-15T22:38:31.737Z,70.60
2023-05-15T22:41:01.075Z,70.94
2023-05-15T22:43:27.724Z,71.07
2023-05-15T22:45:54.304Z,71.37
2023-05-15T22:48:21.136Z,71.61
2023-05-15T22:50:47.838Z,72.01
2023-05-15T22:53:15.269Z,72.55
2023-05-15T22:55:42.312Z,72.79
2023-05-15T22:58:08.869Z,72.54
2023-05-15T23:00:35.462Z,72.85
2023-05-15T23:03:02.320Z,73.08
2023-05-15T23:05:29.077Z,73.58
2023-05-15T23:07:55.944Z,73.25
2023-05-15T23:10:22.967Z,73.56
2023-05-15T23:12:49.631Z,73.83
2023-05-15T23:15:16.483Z,73.68
2023-05-15T23:17:43.482Z,73.23
2023-05-15T23:20:10.689Z,73.04
2023-05-15T23:22:37.510Z,72.91
2023-05-15T23:25:04.941Z,73.08
2023-05-15T23:27:31.799Z,72.98
2023-05-15T23:29:58.561Z,73.17
2023-05-15T23:32:25.392Z,73.72
2023-05-15T23:34:55.515Z,72.98
2023-05-15T23:37:22.247Z,72.83
2023-05-15T23:39:51.370Z,73.30
2023-05-15T23:42:17.955Z,73.06
2023-05-15T23:44:44.744Z,72.92
2023-05-15T23:47:11.607Z,73.48
2023-05-15T23:49:41.388Z,73.76
2023-05-15T23:52:07.974Z,73.81
2023-05-15T23:54:34.761Z,73.85
2023-05-15T23:57:02.921Z,74.03
2023-05-15T23:59:29.869Z,74.22
